PWSweather.com
Personal Weather Stations
Station Observations
LEONMETEO
LeonES 24008

LeonES 24008

Lat: 42.6055559, Lon: -5.5752249

Elevation: 2690

Station Type: La Crosse WS3600

Latest ConditionsUpdated 2:43:28 AM GMT+01:01 Wednesday, Feb 22, 2017
Currently Today's Max Today's Min Today's Average
Temperature 42.9°F6.1°C 45.3°F7.4°C 42.9°F6.1°C 44.2°F6.8°C
Dew Point 35.9°F2.2°C 36.8°F2.7°C 35.9°F2.2°C 36.4°F2.4°C
Winds - N16091.8 kmh N Calm Calm - Calm Calm
Wind Gusts -- -- - -
Humidity 76% 76% 72% 74%
Pressure 29.96 in1014.6 mb 29.96 in1014.6 mb 29.96 in1014.6 mb -
Hour Temp Dew Point Humidity Winds Wind Gusts Pressure Precip Precip Rate Daily Precip Total
02:43 AM 42.9°F6.1°C 35.9°F2.2°C 76% - N16091.8 kmh N -- 29.96 in1014.6 mb 0.00 in0.0 mm 0.00 in0.0 mm 0.00 in0.0 mm
02:38 AM 42.9°F6.1°C 35.9°F2.2°C 76% - N16091.8 kmh N -- 29.96 in1014.6 mb 0.00 in0.0 mm 0.00 in0.0 mm 0.00 in0.0 mm
02:33 AM 43.3°F6.3°C 36.2°F2.3°C 76% - N16091.8 kmh N -- 29.96 in1014.6 mb 0.00 in0.0 mm 0.00 in0.0 mm 0.00 in0.0 mm
02:28 AM 43.3°F6.3°C 36.2°F2.3°C 76% - N16091.8 kmh N -- 29.96 in1014.6 mb 0.00 in0.0 mm 0.00 in0.0 mm 0.00 in0.0 mm
02:23 AM 43.5°F6.4°C 36.4°F2.4°C 76% - N16091.8 kmh N -- 29.96 in1014.6 mb 0.00 in0.0 mm 0.00 in0.0 mm 0.00 in0.0 mm
02:18 AM 43.7°F6.5°C 36.6°F2.6°C 76% - N16091.8 kmh N -- 29.96 in1014.6 mb 0.00 in0.0 mm 0.00 in0.0 mm 0.00 in0.0 mm
02:13 AM 43.8°F6.6°C 36.4°F2.4°C 76% - N16091.8 kmh N -- 29.96 in1014.6 mb 0.00 in0.0 mm 0.00 in0.0 mm 0.00 in0.0 mm
02:08 AM 43.8°F6.6°C 36.4°F2.4°C 75% - N16091.8 kmh N -- 29.96 in1014.6 mb 0.00 in0.0 mm 0.00 in0.0 mm 0.00 in0.0 mm
02:03 AM 43.8°F6.6°C 36.4°F2.4°C 75% - N16091.8 kmh N -- 29.96 in1014.6 mb 0.00 in0.0 mm 0.00 in0.0 mm 0.00 in0.0 mm
01:58 AM 44.0°F6.7°C 36.6°F2.6°C 75% - N16091.8 kmh N -- 29.96 in1014.6 mb 0.00 in0.0 mm 0.00 in0.0 mm 0.00 in0.0 mm
01:53 AM 44.0°F6.7°C 36.6°F2.6°C 75% - N16091.8 kmh N -- 29.96 in1014.6 mb 0.00 in0.0 mm 0.00 in0.0 mm 0.00 in0.0 mm
01:48 AM 44.0°F6.7°C 36.6°F2.6°C 75% - N16091.8 kmh N -- 29.96 in1014.6 mb 0.00 in0.0 mm 0.00 in0.0 mm 0.00 in0.0 mm
01:43 AM 44.2°F6.8°C 36.4°F2.4°C 75% - N16091.8 kmh N -- 29.96 in1014.6 mb 0.00 in0.0 mm 0.00 in0.0 mm 0.00 in0.0 mm
01:38 AM 44.2°F6.8°C 36.4°F2.4°C 75% - N16091.8 kmh N -- 29.96 in1014.6 mb 0.00 in0.0 mm 0.00 in0.0 mm 0.00 in0.0 mm
01:33 AM 44.2°F6.8°C 36.4°F2.4°C 75% - N16091.8 kmh N -- 29.96 in1014.6 mb 0.00 in0.0 mm 0.00 in0.0 mm 0.00 in0.0 mm
01:28 AM 44.2°F6.8°C 36.4°F2.4°C 75% - N16091.8 kmh N -- 29.96 in1014.6 mb 0.00 in0.0 mm 0.00 in0.0 mm 0.00 in0.0 mm
01:23 AM 44.2°F6.8°C 36.4°F2.4°C 75% - N16091.8 kmh N -- 29.96 in1014.6 mb 0.00 in0.0 mm 0.00 in0.0 mm 0.00 in0.0 mm
01:18 AM 44.2°F6.8°C 36.4°F2.4°C 75% - N16091.8 kmh N -- 29.96 in1014.6 mb 0.00 in0.0 mm 0.00 in0.0 mm 0.00 in0.0 mm
01:13 AM 44.2°F6.8°C 36.4°F2.4°C 74% - N16091.8 kmh N -- 29.96 in1014.6 mb 0.00 in0.0 mm 0.00 in0.0 mm 0.00 in0.0 mm
01:08 AM 44.2°F6.8°C 36.4°F2.4°C 74% - N16091.8 kmh N -- 29.96 in1014.6 mb 0.00 in0.0 mm 0.00 in0.0 mm 0.00 in0.0 mm
01:03 AM 44.2°F6.8°C 36.4°F2.4°C 74% - N16091.8 kmh N -- 29.96 in1014.6 mb 0.00 in0.0 mm 0.00 in0.0 mm 0.00 in0.0 mm
12:57 AM 44.2°F6.8°C 36.4°F2.4°C 74% - N16091.8 kmh N -- 29.96 in1014.6 mb 0.00 in0.0 mm 0.00 in0.0 mm 0.00 in0.0 mm
12:53 AM 44.4°F6.9°C 36.2°F2.3°C 73% - N16091.8 kmh N -- 29.96 in1014.6 mb 0.00 in0.0 mm 0.00 in0.0 mm 0.00 in0.0 mm
12:48 AM 44.4°F6.9°C 36.2°F2.3°C 73% - N16091.8 kmh N -- 29.96 in1014.6 mb 0.00 in0.0 mm 0.00 in0.0 mm 0.00 in0.0 mm
12:42 AM 44.4°F6.9°C 36.2°F2.3°C 73% - N16091.8 kmh N -- 29.96 in1014.6 mb 0.00 in0.0 mm 0.00 in0.0 mm 0.00 in0.0 mm
12:37 AM 44.7°F7.1°C 36.6°F2.6°C 73% - N16091.8 kmh N -- 29.96 in1014.6 mb 0.00 in0.0 mm 0.00 in0.0 mm 0.00 in0.0 mm
12:32 AM 44.7°F7.1°C 36.6°F2.6°C 73% - N16091.8 kmh N -- 29.96 in1014.6 mb 0.00 in0.0 mm 0.00 in0.0 mm 0.00 in0.0 mm
12:27 AM 44.9°F7.2°C 36.8°F2.7°C 73% - N16091.8 kmh N -- 29.96 in1014.6 mb 0.00 in0.0 mm 0.00 in0.0 mm 0.00 in0.0 mm
12:22 AM 44.9°F7.2°C 36.8°F2.7°C 73% - N16091.8 kmh N -- 29.96 in1014.6 mb 0.00 in0.0 mm 0.00 in0.0 mm 0.00 in0.0 mm
12:17 AM 45.1°F7.3°C 36.6°F2.6°C 73% - N16091.8 kmh N -- 29.96 in1014.6 mb 0.00 in0.0 mm 0.00 in0.0 mm 0.00 in0.0 mm
12:12 AM 45.1°F7.3°C 36.6°F2.6°C 72% - N16091.8 kmh N -- 29.96 in1014.6 mb 0.00 in0.0 mm 0.00 in0.0 mm 0.00 in0.0 mm
12:07 AM 45.1°F7.3°C 36.6°F2.6°C 72% - N16091.8 kmh N -- 29.96 in1014.6 mb 0.00 in0.0 mm 0.00 in0.0 mm 0.00 in0.0 mm
12:02 AM 45.3°F7.4°C 36.4°F2.4°C 72% - N16091.8 kmh N -- 29.96 in1014.6 mb 0.00 in0.0 mm 0.00 in0.0 mm 0.00 in0.0 mm